createdAt,value
2024-03-12T00:00:08.083Z,86.12
2024-03-12T00:03:37.310Z,86.00
2024-03-12T00:06:27.247Z,85.84
2024-03-12T00:09:15.984Z,86.12
2024-03-12T00:12:04.203Z,86.10
2024-03-12T00:14:52.394Z,86.15
2024-03-12T00:17:40.973Z,86.04
2024-03-12T00:20:37.150Z,86.01
2024-03-12T00:23:27.280Z,86.03
2024-03-12T00:26:16.637Z,86.95
2024-03-12T00:29:06.105Z,87.46
2024-03-12T00:31:56.334Z,87.05
2024-03-12T00:34:44.996Z,86.92
2024-03-12T00:37:36.595Z,86.83
2024-03-12T00:40:34.865Z,86.35
2024-03-12T00:43:23.424Z,86.08
2024-03-12T00:46:12.666Z,85.92
2024-03-12T00:49:01.282Z,85.81
2024-03-12T00:51:50.208Z,85.69
2024-03-12T00:54:38.395Z,85.76
2024-03-12T00:57:28.471Z,85.65
2024-03-12T01:00:18.400Z,85.63
2024-03-12T01:03:09.975Z,85.83
2024-03-12T01:05:59.363Z,85.79
2024-03-12T01:08:47.808Z,85.94
2024-03-12T01:11:35.821Z,86.15
2024-03-12T01:14:24.271Z,86.20
2024-03-12T01:17:12.249Z,86.20
2024-03-12T01:20:01.000Z,86.06
2024-03-12T01:22:51.838Z,85.95
2024-03-12T01:25:42.908Z,85.63
2024-03-12T01:28:31.852Z,85.53
2024-03-12T01:31:22.995Z,85.41
2024-03-12T01:34:12.358Z,85.43
2024-03-12T01:37:01.362Z,85.48
2024-03-12T01:39:53.858Z,85.26
2024-03-12T01:42:42.240Z,85.08
2024-03-12T01:45:34.567Z,85.18
2024-03-12T01:48:24.230Z,85.02
2024-03-12T01:51:14.210Z,85.13
2024-03-12T01:54:05.361Z,84.86
2024-03-12T01:56:53.679Z,85.07
2024-03-12T01:59:42.200Z,84.86
2024-03-12T02:02:30.679Z,84.80
2024-03-12T02:05:20.379Z,84.71
2024-03-12T02:08:08.723Z,84.83
2024-03-12T02:10:57.111Z,85.18
2024-03-12T02:13:46.127Z,85.05
2024-03-12T02:16:34.524Z,85.09
2024-03-12T02:19:23.030Z,85.04
2024-03-12T02:22:11.557Z,85.19
2024-03-12T02:25:00.489Z,85.21
2024-03-12T02:27:49.148Z,85.07
2024-03-12T02:30:37.566Z,84.99
2024-03-12T02:33:26.365Z,85.07
2024-03-12T02:36:14.868Z,85.18
2024-03-12T02:39:05.566Z,85.09
2024-03-12T02:41:53.822Z,84.97
2024-03-12T02:44:42.383Z,84.90
2024-03-12T02:47:30.835Z,85.02
2024-03-12T02:50:19.833Z,85.02
2024-03-12T02:53:08.260Z,85.01
2024-03-12T02:55:56.782Z,84.77
2024-03-12T02:58:45.340Z,85.05
2024-03-12T03:01:33.977Z,85.35
2024-03-12T03:04:25.751Z,85.64
2024-03-12T03:07:17.121Z,85.72
2024-03-12T03:10:06.026Z,85.82
2024-03-12T03:12:54.376Z,85.80
2024-03-12T03:15:42.820Z,85.62
2024-03-12T03:18:31.546Z,85.75
2024-03-12T03:21:20.530Z,85.81
2024-03-12T03:24:08.980Z,85.73
2024-03-12T03:26:58.650Z,85.56
2024-03-12T03:29:47.253Z,85.58
2024-03-12T03:32:36.917Z,85.20
2024-03-12T03:35:25.283Z,85.44
2024-03-12T03:38:13.655Z,85.23
2024-03-12T03:41:02.295Z,85.19
2024-03-12T03:43:50.841Z,85.22
2024-03-12T03:46:39.692Z,85.14
2024-03-12T03:49:28.526Z,85.15
2024-03-12T03:52:17.071Z,85.33
2024-03-12T03:55:08.103Z,85.27
2024-03-12T03:57:56.389Z,85.24
2024-03-12T04:00:44.402Z,85.19
2024-03-12T04:03:32.892Z,85.23
2024-03-12T04:06:24.113Z,85.42
2024-03-12T04:09:12.935Z,85.40
2024-03-12T04:12:01.701Z,85.37
2024-03-12T04:14:50.016Z,85.51
2024-03-12T04:17:38.641Z,85.60
2024-03-12T04:20:27.540Z,85.52
2024-03-12T04:23:15.916Z,85.64
2024-03-12T04:26:05.247Z,85.30
2024-03-12T04:28:53.513Z,85.62
2024-03-12T04:31:41.449Z,85.65
2024-03-12T04:34:31.630Z,85.83
2024-03-12T04:37:19.849Z,85.62
2024-03-12T04:40:09.471Z,85.64
2024-03-12T04:42:58.083Z,85.45
2024-03-12T04:45:46.567Z,85.48
2024-03-12T04:48:34.815Z,85.36
2024-03-12T04:51:22.947Z,85.52
2024-03-12T04:54:10.969Z,85.32
2024-03-12T04:56:59.562Z,85.36
2024-03-12T04:59:49.341Z,85.24
2024-03-12T05:02:37.710Z,85.25
2024-03-12T05:05:27.270Z,85.22
2024-03-12T05:08:15.793Z,85.39
2024-03-12T05:11:05.177Z,85.32
2024-03-12T05:13:53.458Z,85.34
2024-03-12T05:16:42.906Z,85.41
2024-03-12T05:19:31.400Z,85.50
2024-03-12T05:22:20.188Z,85.31
2024-03-12T05:25:12.233Z,85.16
2024-03-12T05:28:05.663Z,84.96
2024-03-12T05:30:54.999Z,84.98
2024-03-12T05:33:43.365Z,85.05
2024-03-12T05:36:42.023Z,85.17
2024-03-12T05:39:49.764Z,85.27
2024-03-12T05:42:57.340Z,85.43
2024-03-12T05:46:04.520Z,85.42
2024-03-12T05:48:54.054Z,85.35
2024-03-12T05:51:42.396Z,85.36
2024-03-12T05:54:30.643Z,85.44
2024-03-12T05:57:19.770Z,85.50
2024-03-12T06:00:13.026Z,85.53
2024-03-12T06:03:01.588Z,85.84
2024-03-12T06:05:50.110Z,85.64
2024-03-12T06:08:39.968Z,85.77
2024-03-12T06:11:28.815Z,85.78
2024-03-12T06:14:16.842Z,86.07
2024-03-12T06:17:05.483Z,85.89
2024-03-12T06:19:53.848Z,85.80
2024-03-12T06:22:46.282Z,85.89
2024-03-12T06:25:34.558Z,85.90
2024-03-12T06:28:23.617Z,85.90
2024-03-12T06:31:12.907Z,85.75
2024-03-12T06:34:01.995Z,85.96
2024-03-12T06:36:57.409Z,86.19
2024-03-12T06:39:46.340Z,86.32
2024-03-12T06:42:35.019Z,86.26
2024-03-12T06:45:25.657Z,86.20
2024-03-12T06:48:15.192Z,86.12
2024-03-12T06:51:08.302Z,86.06
2024-03-12T06:53:56.755Z,86.12
2024-03-12T06:56:47.973Z,86.28
2024-03-12T06:59:36.415Z,86.63
2024-03-12T07:02:25.078Z,86.56
2024-03-12T07:05:17.276Z,86.56
2024-03-12T07:08:07.010Z,87.03
2024-03-12T07:10:57.185Z,87.20
2024-03-12T07:13:50.161Z,87.15
2024-03-12T07:16:42.995Z,87.24
2024-03-12T07:19:32.400Z,87.18
2024-03-12T07:22:20.804Z,87.16
2024-03-12T07:25:13.004Z,87.21
2024-03-12T07:28:08.327Z,87.09
2024-03-12T07:30:57.621Z,87.29
2024-03-12T07:33:46.965Z,87.20
2024-03-12T07:36:35.687Z,87.12
2024-03-12T07:39:27.263Z,87.22
2024-03-12T07:42:20.503Z,87.11
2024-03-12T07:45:15.982Z,87.13
2024-03-12T07:48:07.246Z,87.09
2024-03-12T07:51:02.787Z,87.14
2024-03-12T07:53:52.710Z,87.01
2024-03-12T07:56:40.951Z,86.98
2024-03-12T07:59:32.724Z,87.05
2024-03-12T08:02:22.974Z,87.13
2024-03-12T08:05:12.298Z,86.94
2024-03-12T08:08:01.000Z,86.98
2024-03-12T08:10:49.455Z,87.00
2024-03-12T08:13:37.600Z,87.39
2024-03-12T08:16:25.823Z,87.35
2024-03-12T08:19:14.332Z,87.32
2024-03-12T08:22:04.888Z,87.13
2024-03-12T08:24:55.762Z,86.92
2024-03-12T08:27:44.280Z,86.75
2024-03-12T08:30:34.494Z,87.00
2024-03-12T08:33:22.547Z,87.09
2024-03-12T08:36:10.719Z,87.05
2024-03-12T08:39:00.237Z,87.08
2024-03-12T08:41:49.088Z,87.15
2024-03-12T08:44:37.761Z,86.84
2024-03-12T08:47:26.752Z,86.64
2024-03-12T08:50:16.279Z,86.73
2024-03-12T08:53:04.727Z,86.73
2024-03-12T08:55:53.323Z,86.73
2024-03-12T08:58:41.429Z,86.92
2024-03-12T09:01:30.016Z,86.80
2024-03-12T09:04:18.852Z,86.88
2024-03-12T09:07:10.209Z,86.96
2024-03-12T09:10:00.325Z,86.68
2024-03-12T09:12:48.468Z,86.70
2024-03-12T09:15:37.454Z,86.61
2024-03-12T09:18:27.583Z,86.61
2024-03-12T09:21:16.972Z,86.52
2024-03-12T09:24:06.638Z,86.34
2024-03-12T09:26:55.292Z,86.19
2024-03-12T09:29:43.791Z,86.19
2024-03-12T09:32:32.020Z,86.07
2024-03-12T09:35:20.717Z,86.05
2024-03-12T09:38:10.998Z,85.97
2024-03-12T09:41:04.509Z,86.27
2024-03-12T09:43:55.213Z,86.48
2024-03-12T09:46:46.913Z,86.53
2024-03-12T09:49:38.792Z,86.42
2024-03-12T09:52:27.503Z,86.83
2024-03-12T09:55:17.151Z,86.90
2024-03-12T09:58:07.806Z,87.06
2024-03-12T10:00:56.708Z,86.82
2024-03-12T10:03:47.752Z,86.70
2024-03-12T10:06:37.007Z,86.34
2024-03-12T10:09:29.475Z,86.11
2024-03-12T10:12:22.158Z,86.38
2024-03-12T10:15:16.331Z,86.64
2024-03-12T10:18:08.475Z,86.64
2024-03-12T10:20:59.631Z,86.61
2024-03-12T10:23:49.023Z,86.78
2024-03-12T10:26:37.713Z,86.85
2024-03-12T10:29:26.144Z,86.52
2024-03-12T10:32:23.183Z,86.63
2024-03-12T10:35:21.237Z,86.62
2024-03-12T10:38:12.606Z,86.85
2024-03-12T10:41:22.956Z,86.83
2024-03-12T10:44:12.702Z,86.81
2024-03-12T10:47:02.473Z,86.24
2024-03-12T10:49:50.414Z,86.75
2024-03-12T10:52:39.744Z,86.72
2024-03-12T10:55:32.195Z,86.80
2024-03-12T10:58:23.025Z,86.95
2024-03-12T11:01:11.982Z,86.55
2024-03-12T11:04:02.064Z,86.70
2024-03-12T11:06:53.138Z,86.88
2024-03-12T11:09:41.945Z,87.15
2024-03-12T11:12:30.130Z,87.12
2024-03-12T11:15:19.627Z,87.03
2024-03-12T11:18:08.346Z,86.99
2024-03-12T11:20:56.430Z,87.03
2024-03-12T11:23:46.850Z,86.83
2024-03-12T11:26:37.115Z,86.80
2024-03-12T11:30:09.904Z,86.77
2024-03-12T11:32:58.513Z,87.09
2024-03-12T11:35:48.005Z,87.10
2024-03-12T11:38:36.403Z,86.98
2024-03-12T11:41:26.800Z,87.30
2024-03-12T11:44:49.646Z,87.31
2024-03-12T11:47:40.282Z,86.87
2024-03-12T11:50:44.693Z,86.97
2024-03-12T11:53:36.644Z,87.09
2024-03-12T11:56:28.857Z,87.10
2024-03-12T11:59:24.988Z,87.05
2024-03-12T12:02:13.464Z,86.92
2024-03-12T12:05:04.036Z,86.85
2024-03-12T12:07:52.820Z,86.89
2024-03-12T12:10:41.126Z,86.96
2024-03-12T12:13:31.263Z,87.04
2024-03-12T12:16:19.834Z,86.93
2024-03-12T12:19:13.420Z,86.96
2024-03-12T12:22:11.683Z,87.14
2024-03-12T12:25:02.501Z,87.10
2024-03-12T12:27:51.289Z,87.18
2024-03-12T12:30:40.230Z,87.23
2024-03-12T12:33:32.011Z,86.72
2024-03-12T12:36:26.711Z,86.59
2024-03-12T12:39:18.645Z,86.69
2024-03-12T12:42:08.614Z,86.72
2024-03-12T12:44:57.397Z,86.69
2024-03-12T12:47:52.011Z,86.35
2024-03-12T12:50:40.324Z,86.62
2024-03-12T12:53:28.773Z,86.98
2024-03-12T12:56:20.770Z,87.02
2024-03-12T12:59:14.202Z,87.27
2024-03-12T13:02:22.313Z,87.33
2024-03-12T13:05:24.881Z,87.28
2024-03-12T13:08:31.309Z,87.28
2024-03-12T13:11:22.710Z,87.36
2024-03-12T13:14:10.809Z,87.19
2024-03-12T13:17:00.818Z,86.87
2024-03-12T13:19:50.009Z,86.90
2024-03-12T13:22:38.257Z,86.94
2024-03-12T13:25:26.432Z,87.01
2024-03-12T13:28:18.879Z,86.98
2024-03-12T13:31:07.295Z,86.96
2024-03-12T13:33:55.809Z,86.75
2024-03-12T13:36:44.784Z,86.53
2024-03-12T13:39:33.247Z,86.56
2024-03-12T13:42:21.698Z,86.46
2024-03-12T13:45:10.940Z,86.50
2024-03-12T13:48:00.123Z,86.53
2024-03-12T13:50:48.663Z,86.36
2024-03-12T13:53:41.789Z,86.05
2024-03-12T13:56:34.470Z,86.28
2024-03-12T13:59:22.973Z,86.69
2024-03-12T14:02:14.991Z,86.93
2024-03-12T14:05:05.945Z,87.17
2024-03-12T14:07:54.780Z,87.33
2024-03-12T14:10:45.448Z,87.47
2024-03-12T14:13:36.467Z,87.83
2024-03-12T14:16:25.256Z,87.93
2024-03-12T14:19:13.908Z,87.88
2024-03-12T14:22:02.842Z,87.84
2024-03-12T14:24:53.234Z,87.79
2024-03-12T14:27:41.662Z,87.77
2024-03-12T14:30:30.203Z,87.73
2024-03-12T14:33:18.648Z,87.68
2024-03-12T14:36:08.372Z,87.93
2024-03-12T14:38:57.425Z,87.91
2024-03-12T14:41:46.027Z,88.00
2024-03-12T14:44:35.763Z,88.09
2024-03-12T14:47:24.441Z,88.19
2024-03-12T14:50:15.535Z,88.11
2024-03-12T14:53:04.213Z,87.89
2024-03-12T14:55:53.456Z,88.08
2024-03-12T14:58:42.143Z,88.08
2024-03-12T15:01:32.593Z,88.17
2024-03-12T15:04:22.356Z,88.35
2024-03-12T15:07:12.163Z,88.27
2024-03-12T15:10:01.367Z,88.16
2024-03-12T15:12:50.828Z,88.30
2024-03-12T15:15:38.961Z,88.30
2024-03-12T15:18:29.257Z,88.19
2024-03-12T15:21:19.219Z,88.38
2024-03-12T15:24:08.311Z,88.32
2024-03-12T15:26:58.882Z,88.66
2024-03-12T15:29:47.262Z,88.82
2024-03-12T15:32:40.049Z,88.71
2024-03-12T15:35:29.348Z,88.76
2024-03-12T15:38:17.950Z,88.91
2024-03-12T15:41:07.830Z,89.10
2024-03-12T15:43:56.485Z,89.15
2024-03-12T15:46:44.625Z,89.00
2024-03-12T15:49:33.236Z,88.92
2024-03-12T15:52:22.506Z,88.88
2024-03-12T15:55:12.333Z,88.91
2024-03-12T15:58:01.015Z,88.67
2024-03-12T16:00:51.056Z,88.79
2024-03-12T16:03:39.867Z,88.74
2024-03-12T16:06:53.900Z,88.64
2024-03-12T16:09:45.752Z,88.43
2024-03-12T16:12:34.785Z,88.43
2024-03-12T16:15:24.058Z,88.61
2024-03-12T16:18:13.421Z,88.52
2024-03-12T16:21:02.064Z,88.53
2024-03-12T16:23:50.356Z,88.58
2024-03-12T16:26:39.104Z,88.41
2024-03-12T16:29:29.849Z,88.48
2024-03-12T16:32:18.368Z,88.29
2024-03-12T16:35:09.715Z,88.33
2024-03-12T16:37:58.800Z,88.35
2024-03-12T16:40:49.034Z,88.29
2024-03-12T16:43:37.771Z,87.80
2024-03-12T16:46:26.096Z,88.19
2024-03-12T16:49:15.378Z,87.96
2024-03-12T16:52:05.435Z,88.06
2024-03-12T16:54:54.784Z,88.00
2024-03-12T16:57:43.798Z,88.00
2024-03-12T17:00:33.353Z,87.84
2024-03-12T17:03:22.371Z,88.08
2024-03-12T17:06:11.795Z,88.22
2024-03-12T17:09:02.688Z,88.42
2024-03-12T17:11:51.722Z,88.49
2024-03-12T17:14:40.625Z,88.71
2024-03-12T17:17:28.605Z,88.75
2024-03-12T17:20:21.272Z,88.83
2024-03-12T17:23:10.366Z,88.94
2024-03-12T17:25:58.895Z,88.95
2024-03-12T17:28:47.693Z,89.12
2024-03-12T17:31:38.458Z,89.07
2024-03-12T17:34:30.705Z,88.98
2024-03-12T17:37:20.926Z,88.78
2024-03-12T17:40:16.313Z,88.68
2024-03-12T17:43:07.136Z,88.77
2024-03-12T17:46:14.179Z,88.72
2024-03-12T17:49:03.513Z,88.85
2024-03-12T17:51:53.068Z,88.87
2024-03-12T17:54:42.396Z,88.84
2024-03-12T17:57:33.287Z,88.63
2024-03-12T18:00:22.967Z,88.65
2024-03-12T18:03:15.702Z,88.66
2024-03-12T18:06:07.283Z,88.53
2024-03-12T18:09:01.393Z,88.51
2024-03-12T18:11:50.184Z,88.77
2024-03-12T18:14:40.068Z,88.78
2024-03-12T18:17:28.265Z,88.67
2024-03-12T18:20:31.453Z,88.63
2024-03-12T18:23:21.135Z,88.78
2024-03-12T18:26:09.414Z,88.80
2024-03-12T18:28:58.267Z,88.73
2024-03-12T18:31:46.386Z,88.51
2024-03-12T18:34:34.981Z,88.40
2024-03-12T18:37:22.945Z,88.30
2024-03-12T18:40:14.284Z,88.05
2024-03-12T18:43:04.759Z,88.15
2024-03-12T18:45:53.275Z,88.12
2024-03-12T18:48:42.573Z,88.27
2024-03-12T18:51:33.786Z,88.87
2024-03-12T18:54:24.036Z,89.06
2024-03-12T18:57:13.000Z,89.36
2024-03-12T19:00:02.093Z,89.31
2024-03-12T19:02:54.015Z,89.34
2024-03-12T19:05:42.727Z,89.40
2024-03-12T19:08:31.922Z,89.31
2024-03-12T19:11:21.283Z,89.53
2024-03-12T19:14:13.357Z,89.61
2024-03-12T19:17:03.440Z,89.64
2024-03-12T19:19:52.072Z,89.80
2024-03-12T19:22:41.853Z,89.83
2024-03-12T19:25:30.516Z,89.70
2024-03-12T19:28:19.021Z,89.83
2024-03-12T19:31:10.421Z,89.63
2024-03-12T19:33:59.361Z,89.29
2024-03-12T19:36:48.873Z,89.48
2024-03-12T19:39:39.080Z,89.26
2024-03-12T19:42:30.436Z,89.44
2024-03-12T19:45:24.239Z,89.51
2024-03-12T19:48:18.612Z,89.47
2024-03-12T19:51:10.479Z,89.44
2024-03-12T19:53:59.339Z,89.36
2024-03-12T19:56:48.173Z,89.24
2024-03-12T19:59:36.208Z,89.15
2024-03-12T20:02:26.143Z,89.17
2024-03-12T20:05:15.445Z,89.17
2024-03-12T20:08:10.451Z,89.21
2024-03-12T20:10:58.977Z,89.09
2024-03-12T20:13:49.820Z,89.02
2024-03-12T20:16:38.421Z,88.96
2024-03-12T20:19:26.649Z,88.76
2024-03-12T20:22:15.117Z,88.63
2024-03-12T20:25:09.765Z,88.51
2024-03-12T20:27:58.994Z,88.64
2024-03-12T20:30:49.481Z,88.57
2024-03-12T20:33:40.172Z,88.87
2024-03-12T20:36:28.902Z,89.11
2024-03-12T20:39:21.176Z,89.27
2024-03-12T20:42:10.551Z,89.02
2024-03-12T20:44:58.728Z,89.05
2024-03-12T20:47:49.009Z,89.35
2024-03-12T20:50:37.842Z,89.30
2024-03-12T20:53:29.353Z,89.04
2024-03-12T20:56:17.737Z,89.21
2024-03-12T20:59:06.552Z,89.03
2024-03-12T21:01:55.280Z,88.96
2024-03-12T21:04:44.867Z,89.01
2024-03-12T21:07:33.480Z,88.80
2024-03-12T21:10:24.580Z,88.67
2024-03-12T21:13:13.268Z,88.56
2024-03-12T21:16:02.120Z,88.64
2024-03-12T21:18:50.962Z,88.74
2024-03-12T21:21:39.499Z,88.82
2024-03-12T21:24:27.837Z,88.48
2024-03-12T21:27:18.240Z,88.58
2024-03-12T21:30:13.567Z,88.42
2024-03-12T21:33:02.062Z,88.69
2024-03-12T21:35:50.362Z,88.81
2024-03-12T21:38:39.222Z,88.74
2024-03-12T21:41:27.554Z,88.91
2024-03-12T21:44:15.949Z,89.02
2024-03-12T21:47:05.165Z,89.03
2024-03-12T21:49:53.823Z,88.92
2024-03-12T21:52:43.758Z,88.98
2024-03-12T21:55:32.424Z,89.22
2024-03-12T21:58:21.176Z,89.01
2024-03-12T22:01:11.672Z,89.24
2024-03-12T22:03:59.983Z,89.18
2024-03-12T22:06:48.276Z,89.26
2024-03-12T22:09:36.725Z,89.25
2024-03-12T22:12:25.629Z,89.06
2024-03-12T22:15:16.618Z,89.13
2024-03-12T22:18:05.970Z,89.08
2024-03-12T22:20:54.361Z,88.97
2024-03-12T22:23:45.403Z,88.83
2024-03-12T22:26:34.257Z,89.00
2024-03-12T22:29:22.746Z,88.85
2024-03-12T22:32:15.639Z,88.92
2024-03-12T22:35:05.699Z,88.84
2024-03-12T22:37:54.988Z,88.81
2024-03-12T22:40:44.695Z,88.95
2024-03-12T22:43:36.320Z,88.94
2024-03-12T22:46:25.669Z,89.10
2024-03-12T22:49:14.618Z,88.87
2024-03-12T22:52:06.559Z,89.00
2024-03-12T22:54:55.997Z,88.73
2024-03-12T22:57:45.038Z,88.96
2024-03-12T23:00:42.421Z,88.84
2024-03-12T23:03:31.466Z,89.06
2024-03-12T23:06:21.497Z,89.04
2024-03-12T23:09:10.441Z,89.03
2024-03-12T23:12:00.330Z,88.85
2024-03-12T23:14:51.379Z,88.81
2024-03-12T23:17:39.497Z,88.78
2024-03-12T23:20:28.380Z,88.97
2024-03-12T23:23:17.713Z,88.86
2024-03-12T23:26:06.052Z,88.90
2024-03-12T23:28:54.709Z,88.74
2024-03-12T23:31:44.459Z,88.94
2024-03-12T23:34:33.042Z,88.98
2024-03-12T23:37:21.654Z,89.02
2024-03-12T23:40:14.367Z,89.07
2024-03-12T23:43:02.787Z,89.10
2024-03-12T23:45:51.521Z,88.92
2024-03-12T23:48:40.078Z,88.99
2024-03-12T23:51:29.849Z,89.05
2024-03-12T23:54:18.687Z,88.77
2024-03-12T23:57:10.703Z,88.79
2024-03-12T23:59:58.756Z,88.53
